Thornton, Iowa
Current Conditions -  °F | °C
As of 1:53 PM on Wednesday 17 Dec 2014 (Local Time) from KMCW Reporting Station
Clear Clear  
Wind Chill:   Ceiling: Unl
Heat Index: 21°   Visibility: 10mi
Dew Point: 14°   Wind: 13mph
Humidity: 74%   Direction: 340°NNW
Pressure: 30.26"   Gusts: NA
Location:  42.94°N, 93.38°W
Report Text: KMCW 171953Z AUTO 34011KT 10SM CLR M06/M10 A3026 RMK AO2 SLP267 T10611100
Loading
Personal Weather Stations






























Interactive Weather Map New forecast layout! Learn more

10-Day Weather Forecast

Advertisements
Track Severe Weather on mobile